createdAt,value
2022-10-22T00:01:26.834Z,101038.75
2022-10-22T00:04:07.391Z,101048.56
2022-10-22T00:06:34.197Z,101049.44
2022-10-22T00:09:01.270Z,101044.16
2022-10-22T00:11:28.049Z,101039.75
2022-10-22T00:14:14.887Z,101055.59
2022-10-22T00:17:15.871Z,101063.53
2022-10-22T00:19:56.452Z,101045.16
2022-10-22T00:22:23.253Z,101034.56
2022-10-22T00:24:50.009Z,101053.16
2022-10-22T00:27:16.767Z,101057.59
2022-10-22T00:29:43.501Z,101056.75
2022-10-22T00:32:10.379Z,101055.91
2022-10-22T00:34:37.273Z,101048.78
2022-10-22T00:37:04.069Z,101047.06
2022-10-22T00:39:30.854Z,101040.00
2022-10-22T00:41:57.984Z,101043.56
2022-10-22T00:44:43.491Z,101030.28
2022-10-22T00:47:10.371Z,101031.31
2022-10-22T00:49:37.394Z,101035.66
2022-10-22T00:52:04.209Z,101043.50
2022-10-22T00:54:50.886Z,101038.28
2022-10-22T00:57:51.879Z,101030.28
2022-10-22T01:00:32.623Z,101024.13
2022-10-22T01:02:59.653Z,101025.91
2022-10-22T01:05:27.813Z,101021.59
2022-10-22T01:07:54.649Z,101008.31
2022-10-22T01:10:21.611Z,101005.66
2022-10-22T01:12:48.296Z,101010.03
2022-10-22T01:15:33.061Z,100995.91
2022-10-22T01:18:02.877Z,100993.31
2022-10-22T01:20:38.851Z,100986.22
2022-10-22T01:23:08.684Z,100980.25
2022-10-22T01:26:05.964Z,100992.53
2022-10-22T01:28:52.763Z,100989.09
2022-10-22T01:31:20.945Z,100971.38
2022-10-22T01:34:07.946Z,100965.22
2022-10-22T01:36:50.994Z,100954.72
2022-10-22T01:39:17.927Z,100953.00
2022-10-22T01:41:48.255Z,100952.88
2022-10-22T01:44:25.183Z,100962.50
2022-10-22T01:46:55.359Z,100962.41
2022-10-22T01:49:27.319Z,100965.91
2022-10-22T01:52:07.673Z,100953.63
2022-10-22T01:55:03.927Z,100956.16
2022-10-22T01:58:31.922Z,100936.03
2022-10-22T02:01:23.590Z,100925.38
2022-10-22T02:04:10.674Z,100918.25
2022-10-22T02:06:39.209Z,100925.47
2022-10-22T02:09:07.818Z,100919.34
2022-10-22T02:11:55.003Z,100907.91
2022-10-22T02:14:37.546Z,100903.41
2022-10-22T02:17:04.687Z,100906.94
2022-10-22T02:19:38.201Z,100901.72
2022-10-22T02:22:05.248Z,100907.00
2022-10-22T02:24:32.155Z,100912.28
2022-10-22T02:27:09.732Z,100922.84
2022-10-22T02:29:39.376Z,100902.56
2022-10-22T02:32:07.409Z,100910.38
2022-10-22T02:34:54.966Z,100909.53
2022-10-22T02:37:35.945Z,100898.16
2022-10-22T02:40:03.477Z,100891.97
2022-10-22T02:42:52.924Z,100887.50
2022-10-22T02:45:33.956Z,100909.56
2022-10-22T02:48:00.918Z,100904.25
2022-10-22T02:50:27.851Z,100899.84
2022-10-22T02:52:54.541Z,100895.44
2022-10-22T02:55:42.039Z,100886.63
2022-10-22T02:58:22.453Z,100891.06
2022-10-22T03:01:11.253Z,100895.56
2022-10-22T03:04:14.971Z,100901.63
2022-10-22T03:07:15.937Z,100890.16
2022-10-22T03:09:43.421Z,100892.78
2022-10-22T03:12:10.156Z,100890.22
2022-10-22T03:14:36.916Z,100892.78
2022-10-22T03:17:23.944Z,100889.31
2022-10-22T03:20:04.571Z,100872.66
2022-10-22T03:22:32.791Z,100876.16
2022-10-22T03:25:03.269Z,100874.47
2022-10-22T03:27:30.526Z,100882.44
2022-10-22T03:29:58.124Z,100889.44
2022-10-22T03:32:24.921Z,100886.81
2022-10-22T03:34:51.866Z,100885.91
2022-10-22T03:37:19.109Z,100886.78
2022-10-22T03:39:46.439Z,100878.81
2022-10-22T03:42:13.704Z,100879.72
2022-10-22T03:44:41.037Z,100868.25
2022-10-22T03:47:07.938Z,100876.19
2022-10-22T03:49:34.786Z,100889.47
2022-10-22T03:52:09.030Z,100901.78
2022-10-22T03:54:55.973Z,100897.44
2022-10-22T03:57:56.997Z,100900.06
2022-10-22T04:00:37.615Z,100915.94
2022-10-22T04:03:04.674Z,100906.16
2022-10-22T04:05:32.816Z,100898.16
2022-10-22T04:07:59.915Z,100888.44
2022-10-22T04:10:26.801Z,100891.97
2022-10-22T04:12:53.608Z,100897.28
2022-10-22T04:15:41.000Z,100898.19
2022-10-22T04:18:42.024Z,100890.34
2022-10-22T04:21:22.708Z,100899.19
2022-10-22T04:23:50.733Z,100913.19
2022-10-22T04:26:18.415Z,100903.66
2022-10-22T04:29:05.034Z,100904.63
2022-10-22T04:31:45.396Z,100904.59
2022-10-22T04:34:12.213Z,100907.03
2022-10-22T04:36:38.984Z,100907.97
2022-10-22T04:39:06.247Z,100917.69
2022-10-22T04:41:34.715Z,100911.69
2022-10-22T04:44:02.096Z,100902.78
2022-10-22T04:46:30.384Z,100914.19
2022-10-22T04:48:57.299Z,100907.97
2022-10-22T04:51:44.013Z,100914.13
2022-10-22T04:54:45.028Z,100904.31
2022-10-22T04:57:29.304Z,100902.56
2022-10-22T04:59:56.073Z,100898.22
2022-10-22T05:02:36.043Z,100897.25
2022-10-22T05:05:16.793Z,100899.09
2022-10-22T05:07:43.832Z,100899.09
2022-10-22T05:10:10.815Z,100906.09
2022-10-22T05:12:37.731Z,100909.50
2022-10-22T05:15:04.614Z,100906.97
2022-10-22T05:17:31.651Z,100913.13
2022-10-22T05:19:58.414Z,100913.06
2022-10-22T05:22:25.194Z,100913.75
2022-10-22T05:24:52.018Z,100910.22
2022-10-22T05:27:39.278Z,100914.63
2022-10-22T05:30:40.064Z,100929.81
2022-10-22T05:33:24.080Z,100935.94
2022-10-22T05:35:51.366Z,100921.72
2022-10-22T05:38:18.394Z,100919.69
2022-10-22T05:40:45.763Z,100926.78
2022-10-22T05:43:12.814Z,100945.44
2022-10-22T05:45:40.071Z,100948.75
2022-10-22T05:48:27.119Z,100947.03
2022-10-22T05:51:28.079Z,100941.75
2022-10-22T05:54:33.091Z,100958.34
2022-10-22T05:57:13.461Z,100967.25
2022-10-22T05:59:40.279Z,100962.47
2022-10-22T06:02:09.045Z,100954.63
2022-10-22T06:04:36.047Z,100963.91
2022-10-22T06:07:25.074Z,100973.69
2022-10-22T06:10:05.925Z,100966.00
2022-10-22T06:12:32.778Z,100962.22
2022-10-22T06:14:59.556Z,100962.34
2022-10-22T06:17:26.450Z,100971.38
2022-10-22T06:20:15.035Z,100961.94
2022-10-22T06:22:55.528Z,100959.31
2022-10-22T06:25:22.214Z,100977.09
2022-10-22T06:27:49.606Z,100971.06
2022-10-22T06:30:16.498Z,100977.16
2022-10-22T06:32:43.380Z,100975.38
2022-10-22T06:35:10.196Z,100985.19
2022-10-22T06:37:57.069Z,100986.09
2022-10-22T06:40:58.091Z,101004.91
2022-10-22T06:43:38.982Z,101002.34
2022-10-22T06:46:07.547Z,101001.47
2022-10-22T06:48:36.284Z,101005.84
2022-10-22T06:51:25.096Z,100945.72
2022-10-22T06:54:26.154Z,101010.38
2022-10-22T06:57:06.571Z,101018.25
2022-10-22T06:59:33.383Z,101020.19
2022-10-22T07:02:00.180Z,101025.47
2022-10-22T07:04:27.122Z,101018.50
2022-10-22T07:07:14.120Z,101020.28
2022-10-22T07:09:54.514Z,101024.69
2022-10-22T07:12:21.366Z,101030.19
2022-10-22T07:14:48.974Z,101037.28
2022-10-22T07:17:15.978Z,101048.81
2022-10-22T07:20:03.099Z,101052.34
2022-10-22T07:22:43.731Z,101056.94
2022-10-22T07:25:10.686Z,101050.78
2022-10-22T07:27:37.929Z,101053.53
2022-10-22T07:30:05.121Z,101068.63
2022-10-22T07:32:31.923Z,101078.38
2022-10-22T07:34:58.752Z,101091.59
2022-10-22T07:37:25.523Z,101091.63
2022-10-22T07:39:53.861Z,101091.63
2022-10-22T07:42:22.718Z,101099.66
2022-10-22T07:44:49.626Z,101103.22
2022-10-22T07:47:37.133Z,101104.16
2022-10-22T07:50:38.194Z,101104.16
2022-10-22T07:53:39.135Z,101102.41
2022-10-22T07:56:40.131Z,101113.00
2022-10-22T07:59:28.264Z,101104.13
2022-10-22T08:01:55.009Z,101113.84
2022-10-22T08:04:22.032Z,101109.31
2022-10-22T08:06:48.926Z,101120.88
2022-10-22T08:09:15.887Z,101124.25
2022-10-22T08:11:42.814Z,101135.66
2022-10-22T08:14:09.600Z,101114.97
2022-10-22T08:16:36.369Z,101118.22
2022-10-22T08:19:03.206Z,101121.66
2022-10-22T08:21:30.025Z,101121.53
2022-10-22T08:23:56.825Z,101118.72
2022-10-22T08:26:23.789Z,101113.53
2022-10-22T08:28:50.643Z,101111.81
2022-10-22T08:31:17.419Z,101116.09
2022-10-22T08:33:44.321Z,101122.34
2022-10-22T08:36:31.193Z,101130.06
2022-10-22T08:39:12.006Z,101123.50
2022-10-22T08:41:57.751Z,101133.00
2022-10-22T08:44:47.897Z,101135.34
2022-10-22T08:47:33.400Z,101126.41
2022-10-22T08:50:23.189Z,101131.44
2022-10-22T08:53:29.189Z,101124.44
2022-10-22T08:56:30.176Z,101129.34
2022-10-22T08:59:10.693Z,101133.88
2022-10-22T09:01:43.053Z,101153.16
2022-10-22T09:04:25.538Z,101154.78
2022-10-22T09:06:54.453Z,101158.94
2022-10-22T09:09:43.223Z,101153.50
2022-10-22T09:12:24.796Z,101168.03
2022-10-22T09:14:51.887Z,101163.25
2022-10-22T09:17:19.501Z,101168.50
2022-10-22T09:19:58.102Z,101174.81
2022-10-22T09:22:32.867Z,101171.78
2022-10-22T09:25:10.057Z,101175.63
2022-10-22T09:27:36.827Z,101180.97
2022-10-22T09:30:04.644Z,101175.47
2022-10-22T09:32:33.904Z,101170.31
2022-10-22T09:35:01.215Z,101168.31
2022-10-22T09:37:29.854Z,101176.47
2022-10-22T09:39:58.973Z,101163.88
2022-10-22T09:42:25.906Z,101180.81
2022-10-22T09:44:56.543Z,101172.72
2022-10-22T09:47:43.299Z,101171.19
2022-10-22T09:50:17.145Z,101177.69
2022-10-22T09:53:15.236Z,101164.31
2022-10-22T09:56:20.238Z,101167.25
2022-10-22T09:59:01.370Z,101165.66
2022-10-22T10:01:30.167Z,101167.72
2022-10-22T10:04:09.166Z,101171.94
2022-10-22T10:06:39.235Z,101164.94
2022-10-22T10:09:15.299Z,101168.38
2022-10-22T10:11:46.015Z,101175.63
2022-10-22T10:14:33.236Z,101170.16
2022-10-22T10:17:23.157Z,101183.28
2022-10-22T10:19:52.989Z,101187.41
2022-10-22T10:22:32.161Z,101197.00
2022-10-22T10:24:58.970Z,101192.88
2022-10-22T10:27:51.233Z,101202.47
2022-10-22T10:30:33.242Z,101206.22
2022-10-22T10:33:15.552Z,101205.81
2022-10-22T10:35:45.523Z,101199.84
2022-10-22T10:38:29.546Z,101200.34
2022-10-22T10:41:00.018Z,101196.09
2022-10-22T10:43:50.245Z,101207.53
2022-10-22T10:46:36.911Z,101196.06
2022-10-22T10:49:04.252Z,101204.94
2022-10-22T10:51:57.291Z,101197.81
2022-10-22T10:55:18.278Z,101199.66
2022-10-22T10:58:11.029Z,101201.44
2022-10-22T11:00:58.271Z,101205.75
2022-10-22T11:03:48.145Z,101201.41
2022-10-22T11:06:17.297Z,101211.09
2022-10-22T11:09:22.293Z,101196.91
2022-10-22T11:12:01.385Z,101197.97
2022-10-22T11:14:31.961Z,101196.03
2022-10-22T11:17:06.120Z,101199.31
2022-10-22T11:19:51.695Z,101195.19
2022-10-22T11:22:26.897Z,101202.72
2022-10-22T11:24:53.960Z,101209.22
2022-10-22T11:27:44.500Z,101206.41
2022-10-22T11:30:26.286Z,101223.34
2022-10-22T11:32:55.134Z,101217.31
2022-10-22T11:35:26.819Z,101217.41
2022-10-22T11:37:55.778Z,101219.03
2022-10-22T11:40:32.086Z,101222.59
2022-10-22T11:43:03.610Z,101215.59
2022-10-22T11:45:56.350Z,101218.28
2022-10-22T11:48:38.069Z,101215.50
2022-10-22T11:51:48.279Z,101215.56
2022-10-22T11:54:49.295Z,101221.78
2022-10-22T11:57:39.594Z,101221.81
2022-10-22T12:00:39.934Z,101215.66
2022-10-22T12:03:50.315Z,101209.44
2022-10-22T12:07:02.847Z,101196.19
2022-10-22T12:09:32.773Z,101201.47
2022-10-22T12:12:02.687Z,101196.13
2022-10-22T12:14:33.781Z,101197.91
2022-10-22T12:17:16.092Z,101196.13
2022-10-22T12:19:51.975Z,101195.19
2022-10-22T12:22:24.210Z,101193.50
2022-10-22T12:24:53.947Z,101196.91
2022-10-22T12:27:22.606Z,101196.00
2022-10-22T12:29:53.894Z,101191.75
2022-10-22T12:32:20.899Z,101196.19
2022-10-22T12:37:16.317Z,101195.25
2022-10-22T12:39:43.215Z,101199.66
2022-10-22T12:42:14.884Z,101199.63
2022-10-22T12:44:43.064Z,101206.84
2022-10-22T12:47:14.914Z,101205.91
2022-10-22T12:50:03.312Z,101209.47
2022-10-22T12:52:44.029Z,101204.19
2022-10-22T12:55:33.339Z,101220.09
2022-10-22T12:58:35.339Z,101213.91
2022-10-22T13:01:17.719Z,101213.84
2022-10-22T13:04:04.369Z,101212.09
2022-10-22T13:07:06.336Z,101206.75
2022-10-22T13:10:10.342Z,101205.91
2022-10-22T13:12:44.490Z,101204.09
2022-10-22T13:15:29.882Z,101211.06
2022-10-22T13:18:03.206Z,101210.31
2022-10-22T13:20:30.110Z,101201.50
2022-10-22T13:23:03.926Z,101209.44
2022-10-22T13:25:30.794Z,101211.09
2022-10-22T13:27:57.626Z,101205.56
2022-10-22T13:30:32.089Z,101207.44
2022-10-22T13:33:03.448Z,101207.47
2022-10-22T13:35:32.807Z,101213.66
2022-10-22T13:38:00.307Z,101223.56
2022-10-22T13:40:27.436Z,101222.63
2022-10-22T13:42:55.609Z,101217.22
2022-10-22T13:45:42.386Z,101221.50
2022-10-22T13:48:44.364Z,101214.53
2022-10-22T13:51:34.893Z,101219.72
2022-10-22T13:54:48.350Z,101215.22
2022-10-22T13:57:28.842Z,101217.13
2022-10-22T14:00:16.362Z,101216.34
2022-10-22T14:02:58.215Z,101218.13
2022-10-22T14:05:45.386Z,101214.56
2022-10-22T14:08:26.254Z,101216.31
2022-10-22T14:10:53.573Z,101212.81
2022-10-22T14:13:21.203Z,101211.88
2022-10-22T14:15:50.100Z,101216.31
2022-10-22T14:18:24.316Z,101213.59
2022-10-22T14:20:56.203Z,101164.91
2022-10-22T14:23:24.886Z,101218.94
2022-10-22T14:25:51.817Z,101220.72
2022-10-22T14:28:18.700Z,101217.19
2022-10-22T14:30:46.337Z,101224.41
2022-10-22T14:33:18.432Z,101222.66
2022-10-22T14:35:45.494Z,101220.91
2022-10-22T14:38:12.582Z,101232.44
2022-10-22T14:40:40.199Z,101235.88
2022-10-22T14:43:30.407Z,101236.78
2022-10-22T14:46:31.413Z,101235.97
2022-10-22T14:49:11.905Z,101229.78
2022-10-22T14:51:38.731Z,101224.47
2022-10-22T14:54:25.400Z,101223.59
2022-10-22T14:57:26.395Z,101216.50
2022-10-22T15:00:08.141Z,101219.16
2022-10-22T15:02:57.518Z,101219.13
2022-10-22T15:05:44.708Z,101221.88
2022-10-22T15:08:12.675Z,101222.69
2022-10-22T15:10:40.249Z,101222.72
2022-10-22T15:13:07.142Z,101219.19
2022-10-22T15:15:39.290Z,101221.78
2022-10-22T15:18:06.822Z,101226.25
2022-10-22T15:20:33.721Z,101224.50
2022-10-22T15:23:00.599Z,101226.22
2022-10-22T15:25:27.640Z,101220.06
2022-10-22T15:27:58.476Z,101218.34
2022-10-22T15:30:28.746Z,101229.81
2022-10-22T15:32:55.534Z,101232.50
2022-10-22T15:35:22.329Z,101234.28
2022-10-22T15:38:09.469Z,101236.91
2022-10-22T15:41:19.526Z,101236.03
2022-10-22T15:43:59.956Z,101230.72
2022-10-22T15:46:33.211Z,101239.59
2022-10-22T15:49:02.314Z,101231.59
2022-10-22T15:51:29.162Z,101239.56
2022-10-22T15:54:10.342Z,101245.75
2022-10-22T15:57:15.487Z,101251.00
2022-10-22T15:59:57.770Z,101260.66
2022-10-22T16:02:44.528Z,101267.75
2022-10-22T16:05:26.781Z,101261.53
2022-10-22T16:07:55.795Z,101263.28
2022-10-22T16:10:22.913Z,101265.03
2022-10-22T16:12:51.690Z,101265.06
2022-10-22T16:15:18.556Z,101266.81
2022-10-22T16:18:05.475Z,101268.59
2022-10-22T16:20:46.060Z,101271.22
2022-10-22T16:23:13.925Z,101265.91
2022-10-22T16:26:01.487Z,101268.56
2022-10-22T16:28:42.689Z,101277.41
2022-10-22T16:31:30.565Z,101277.41
2022-10-22T16:34:11.749Z,101284.44
2022-10-22T16:36:38.951Z,101278.25
2022-10-22T16:39:26.504Z,101277.31
2022-10-22T16:42:06.965Z,101281.63
2022-10-22T16:44:33.954Z,101271.00
2022-10-22T16:47:01.072Z,101263.97
2022-10-22T16:49:28.016Z,101277.31
2022-10-22T16:51:54.828Z,101271.09
2022-10-22T16:54:41.474Z,101271.09
2022-10-22T16:57:21.916Z,101281.63
2022-10-22T16:59:48.911Z,101293.19
2022-10-22T17:02:35.478Z,101294.97
2022-10-22T17:05:29.906Z,101296.63
2022-10-22T17:08:30.507Z,101292.09
2022-10-22T17:10:57.436Z,101295.63
2022-10-22T17:13:24.179Z,101305.53
2022-10-22T17:16:15.480Z,101314.31
2022-10-22T17:18:58.019Z,101328.41
2022-10-22T17:21:25.254Z,101326.56
2022-10-22T17:24:12.547Z,101333.56
2022-10-22T17:27:13.612Z,101334.34
2022-10-22T17:30:14.478Z,101336.19
2022-10-22T17:33:15.507Z,101342.38
2022-10-22T17:35:56.308Z,101342.25
2022-10-22T17:38:23.291Z,101356.38
2022-10-22T17:40:50.109Z,101354.56
2022-10-22T17:43:16.959Z,101362.69
2022-10-22T17:45:43.832Z,101366.16
2022-10-22T17:48:10.605Z,101366.97
2022-10-22T17:50:41.729Z,101374.88
2022-10-22T17:53:09.295Z,101380.31
2022-10-22T17:55:56.644Z,101365.25
2022-10-22T17:58:57.577Z,101367.88
2022-10-22T18:02:00.282Z,101380.38
2022-10-22T18:05:03.543Z,101388.56
2022-10-22T18:08:04.333Z,101382.38
2022-10-22T18:10:48.349Z,101392.88
2022-10-22T18:13:15.299Z,101385.00
2022-10-22T18:15:42.241Z,101382.38
2022-10-22T18:18:29.574Z,101391.94
2022-10-22T18:21:10.248Z,101392.75
2022-10-22T18:23:57.579Z,101398.94
2022-10-22T18:26:58.554Z,101394.50
2022-10-22T18:29:39.098Z,101398.94
2022-10-22T18:32:12.077Z,101401.63
2022-10-22T18:34:40.139Z,101397.38
2022-10-22T18:37:07.036Z,101404.47
2022-10-22T18:39:34.617Z,101408.91
2022-10-22T18:42:06.318Z,101412.38
2022-10-22T18:44:33.953Z,101420.22
2022-10-22T18:47:00.692Z,101423.94
2022-10-22T18:49:27.580Z,101415.88
2022-10-22T18:51:54.425Z,101422.81
2022-10-22T18:54:41.519Z,101425.44
2022-10-22T18:57:21.926Z,101427.34
2022-10-22T18:59:48.774Z,101435.09
2022-10-22T19:02:36.577Z,101440.56
2022-10-22T19:05:37.580Z,101445.69
2022-10-22T19:08:38.592Z,101441.09
2022-10-22T19:11:22.589Z,101445.47
2022-10-22T19:14:15.128Z,101449.75
2022-10-22T19:16:42.057Z,101445.25
2022-10-22T19:19:09.054Z,101442.66
2022-10-22T19:21:36.759Z,101449.56
2022-10-22T19:24:23.591Z,101456.47
2022-10-22T19:27:04.424Z,101458.16
2022-10-22T19:29:31.386Z,101464.22
2022-10-22T19:32:18.591Z,101456.25
2022-10-22T19:34:59.053Z,101462.19
2022-10-22T19:37:25.865Z,101471.00
2022-10-22T19:39:52.800Z,101470.97
2022-10-22T19:42:20.980Z,101475.28
2022-10-22T19:44:47.831Z,101462.28
2022-10-22T19:47:16.102Z,101459.69
2022-10-22T19:50:03.651Z,101464.75
2022-10-22T19:53:04.647Z,101469.28
2022-10-22T19:56:05.597Z,101484.28
2022-10-22T19:58:46.316Z,101486.84
2022-10-22T20:01:14.371Z,101493.00
2022-10-22T20:04:01.715Z,101494.59
2022-10-22T20:07:02.629Z,101496.31
2022-10-22T20:09:43.055Z,101494.38
2022-10-22T20:12:09.885Z,101499.56
2022-10-22T20:14:37.543Z,101498.91
2022-10-22T20:17:04.393Z,101512.25
2022-10-22T20:19:31.467Z,101512.25
2022-10-22T20:24:26.112Z,101511.91
2022-10-22T20:26:52.919Z,101517.44
2022-10-22T20:29:19.788Z,101512.09
2022-10-22T20:31:47.124Z,101511.63
2022-10-22T20:34:13.991Z,101517.59
2022-10-22T20:36:41.073Z,101523.75
2022-10-22T20:39:10.282Z,101524.59
2022-10-22T20:41:39.247Z,101515.94
2022-10-22T20:44:07.015Z,101516.97
2022-10-22T20:46:34.502Z,101515.31
2022-10-22T20:49:04.393Z,101515.44
2022-10-22T20:51:31.297Z,101524.13
2022-10-22T20:54:19.619Z,101518.72
2022-10-22T20:57:00.183Z,101526.72
2022-10-22T20:59:47.640Z,101523.25
2022-10-22T21:02:49.612Z,101534.53
2022-10-22T21:05:30.090Z,101541.25
2022-10-22T21:07:58.538Z,101543.16
2022-10-22T21:10:38.767Z,101545.75
2022-10-22T21:13:39.674Z,101544.63
2022-10-22T21:16:20.364Z,101548.09
2022-10-22T21:18:47.530Z,101533.78
2022-10-22T21:21:17.133Z,101542.56
2022-10-22T21:23:43.930Z,101539.94
2022-10-22T21:26:10.822Z,101543.28
2022-10-22T21:28:57.631Z,101550.19
2022-10-22T21:31:40.449Z,101549.28
2022-10-22T21:34:07.803Z,101551.03
2022-10-22T21:36:34.815Z,101561.59
2022-10-22T21:39:02.842Z,101552.78
2022-10-22T21:41:29.755Z,101556.56
2022-10-22T21:43:56.618Z,101568.13
2022-10-22T21:46:43.692Z,101566.13
2022-10-22T21:49:44.677Z,101562.50
2022-10-22T21:52:25.277Z,101558.91
2022-10-22T21:55:13.666Z,101566.47
2022-10-22T21:58:14.666Z,101565.44
2022-10-22T22:00:56.278Z,101570.47
2022-10-22T22:03:43.710Z,101570.69
2022-10-22T22:06:26.273Z,101583.75
2022-10-22T22:08:54.899Z,101576.75
2022-10-22T22:11:23.306Z,101579.41
2022-10-22T22:13:50.895Z,101574.97
2022-10-22T22:16:21.308Z,101579.34
2022-10-22T22:18:50.832Z,101571.75
2022-10-22T22:21:19.348Z,101572.94
2022-10-22T22:23:47.592Z,101573.81
2022-10-22T22:26:15.654Z,101572.88
2022-10-22T22:28:42.544Z,101574.63
2022-10-22T22:31:29.372Z,101577.34
2022-10-22T22:34:00.235Z,101572.06
2022-10-22T22:36:27.259Z,101581.63
2022-10-22T22:38:55.415Z,101584.13
2022-10-22T22:41:22.477Z,101590.84
2022-10-22T22:43:51.110Z,101588.53
2022-10-22T22:46:18.097Z,101590.38
2022-10-22T22:49:05.689Z,101584.72
2022-10-22T22:52:06.743Z,101576.75
2022-10-22T22:55:07.670Z,101583.03
2022-10-22T22:57:48.186Z,101586.50
2022-10-22T23:00:15.280Z,101589.31
2022-10-22T23:02:42.590Z,101592.13
2022-10-22T23:05:09.713Z,101585.28
2022-10-22T23:07:36.522Z,101587.84
2022-10-22T23:10:03.824Z,101574.56
2022-10-22T23:12:30.567Z,101578.09
2022-10-22T23:15:02.057Z,101581.50
2022-10-22T23:17:29.025Z,101582.34
2022-10-22T23:19:55.941Z,101578.03
2022-10-22T23:22:22.782Z,101588.72
2022-10-22T23:24:49.642Z,101581.72
2022-10-22T23:27:16.442Z,101567.34
2022-10-22T23:29:43.211Z,101577.91
2022-10-22T23:32:14.278Z,101582.28
2022-10-22T23:34:41.168Z,101570.75
2022-10-22T23:37:09.657Z,101566.25
2022-10-22T23:39:36.447Z,101567.00
2022-10-22T23:42:23.741Z,101563.41
2022-10-22T23:45:04.331Z,101563.25
2022-10-22T23:47:51.731Z,101573.56
2022-10-22T23:53:53.711Z,101566.09
2022-10-22T23:56:54.774Z,101569.69
2022-10-22T23:59:35.273Z,101576.63
